Santa Ynez, CA

8:34 PM PST on February 28, 2015 (GMT -0800)
Santa Ynez | Change Station
CLOSE
Current Station
Airport
Location: Santa Ynez,
Elevation: 673 ft
Nearby Weather Stations

Elev 673 ft 34.61 °N, 120.08 °W | Updated 19 minutes ago

Overcast
Overcast
50 °F
Feels Like 50 °F
N
0
Wind Variable Wind from North

Today
High -- | Low -- °F
--% Chance of Precip.
Yesterday
High -- | Low -- °F
Precip. -- in
6:30 AM 5:55 PM
Waxing Gibbous, 82% visible
Pressure 29.87 in
Visibility 10.0 miles
Clouds Mostly Cloudy 4100 ft
Dew Point 45 °F
Humidity 82%
Rainfall 0.05 in
Snow Depth Not available.
UV 0 out of 12
Pollen 8.30 out of 12
Air Quality Not available.
Flu Activity Not available.
METAR KIZA 010415Z AUTO 00000KT 10SM BKN041 10/07 A2987 RMK AO2

More Conditions Fewer Conditions

Pressure 29.87 in
Visibility 10.0 miles
Clouds Mostly Cloudy 4100 ft
Dew Point 45 °F
Humidity 82%
Rainfall 0.05 in
Snow Depth Not available.
UV 0 out of 12
Pollen 8.30 out of 12
Air Quality Not available.
Flu Activity Not available.
METAR KIZA 010415Z AUTO 00000KT 10SM BKN041 10/07 A2987 RMK AO2

More Conditions Fewer Conditions

10-Day Weather Forecast

Almanac

Astronomy

Feb. 28, 2015 Rise Set
Actual Time
Civil Twilight
Nautical Twilight
Astronomical Twilight
Moon
Length of Visible Light
Length of Day
Tomorrow will be .
, % of the Moon is Illuminated

Today's Extremes

State Highs State Lows

Community

WunderPhotos

Upload Photos

1,801,318 photos uploaded!

WunderBlogs® & News

Nearby

Air Quality

  Air Quality AQ Index Pollutant
Not available.

Snow Depth

Station Depth Elevation

Earthquake Activity

City Distance Mag. Time & Date
Minimum magnitude displayed is 2.5.

Coastal Water Temperatures

Place Temperature

Nearby Weather Stations